sensor_id;sensor_type;location;lat;lon;timestamp;P1;durP1;ratioP1;P2;durP2;ratioP2
5026;SDS011;2532;52.480;13.354;2022-07-25T00:01:11;8.10;;;4.23;;
5026;SDS011;2532;52.480;13.354;2022-07-25T00:03:38;4.73;;;4.23;;
5026;SDS011;2532;52.480;13.354;2022-07-25T00:06:06;4.40;;;3.70;;
5026;SDS011;2532;52.480;13.354;2022-07-25T00:08:33;4.07;;;3.67;;
5026;SDS011;2532;52.480;13.354;2022-07-25T00:11:01;5.60;;;3.50;;
5026;SDS011;2532;52.480;13.354;2022-07-25T00:13:28;5.23;;;4.13;;
5026;SDS011;2532;52.480;13.354;2022-07-25T00:15:55;6.10;;;4.07;;
5026;SDS011;2532;52.480;13.354;2022-07-25T00:18:21;7.70;;;4.73;;
5026;SDS011;2532;52.480;13.354;2022-07-25T00:20:48;5.83;;;4.23;;
5026;SDS011;2532;52.480;13.354;2022-07-25T00:23:15;5.33;;;3.30;;
5026;SDS011;2532;52.480;13.354;2022-07-25T00:25:42;5.33;;;4.00;;
5026;SDS011;2532;52.480;13.354;2022-07-25T00:28:10;5.80;;;3.90;;
5026;SDS011;2532;52.480;13.354;2022-07-25T00:30:37;4.30;;;3.87;;
5026;SDS011;2532;52.480;13.354;2022-07-25T00:33:03;4.90;;;3.60;;
5026;SDS011;2532;52.480;13.354;2022-07-25T00:35:30;4.90;;;4.23;;
5026;SDS011;2532;52.480;13.354;2022-07-25T00:37:57;5.63;;;4.20;;
5026;SDS011;2532;52.480;13.354;2022-07-25T00:40:24;4.20;;;3.70;;
5026;SDS011;2532;52.480;13.354;2022-07-25T00:42:51;4.57;;;4.00;;
5026;SDS011;2532;52.480;13.354;2022-07-25T00:45:19;4.20;;;3.80;;
5026;SDS011;2532;52.480;13.354;2022-07-25T00:47:46;6.07;;;4.00;;
5026;SDS011;2532;52.480;13.354;2022-07-25T00:50:12;4.97;;;4.10;;
5026;SDS011;2532;52.480;13.354;2022-07-25T00:52:39;6.57;;;4.73;;
5026;SDS011;2532;52.480;13.354;2022-07-25T00:55:06;5.37;;;3.60;;
5026;SDS011;2532;52.480;13.354;2022-07-25T00:57:33;4.73;;;4.23;;
5026;SDS011;2532;52.480;13.354;2022-07-25T01:00:00;5.10;;;4.00;;
5026;SDS011;2532;52.480;13.354;2022-07-25T01:02:29;4.83;;;4.00;;
5026;SDS011;2532;52.480;13.354;2022-07-25T01:04:55;7.53;;;4.27;;
5026;SDS011;2532;52.480;13.354;2022-07-25T01:07:22;4.07;;;3.53;;
5026;SDS011;2532;52.480;13.354;2022-07-25T01:09:49;4.73;;;3.73;;
5026;SDS011;2532;52.480;13.354;2022-07-25T01:12:16;5.00;;;4.03;;
5026;SDS011;2532;52.480;13.354;2022-07-25T01:14:43;5.20;;;4.23;;
5026;SDS011;2532;52.480;13.354;2022-07-25T01:17:10;5.13;;;4.40;;
5026;SDS011;2532;52.480;13.354;2022-07-25T01:19:39;4.03;;;3.63;;
5026;SDS011;2532;52.480;13.354;2022-07-25T01:22:07;6.17;;;4.73;;
5026;SDS011;2532;52.480;13.354;2022-07-25T01:24:34;6.73;;;4.30;;
5026;SDS011;2532;52.480;13.354;2022-07-25T01:27:01;4.53;;;4.07;;
5026;SDS011;2532;52.480;13.354;2022-07-25T01:29:28;7.40;;;4.33;;
5026;SDS011;2532;52.480;13.354;2022-07-25T01:31:55;4.13;;;3.50;;
5026;SDS011;2532;52.480;13.354;2022-07-25T01:34:21;5.10;;;3.80;;
5026;SDS011;2532;52.480;13.354;2022-07-25T01:36:48;4.43;;;3.77;;
5026;SDS011;2532;52.480;13.354;2022-07-25T01:39:16;5.83;;;3.77;;
5026;SDS011;2532;52.480;13.354;2022-07-25T01:41:43;4.17;;;3.70;;
5026;SDS011;2532;52.480;13.354;2022-07-25T01:44:10;5.40;;;3.70;;
5026;SDS011;2532;52.480;13.354;2022-07-25T01:46:37;4.43;;;3.73;;
5026;SDS011;2532;52.480;13.354;2022-07-25T01:49:03;5.80;;;4.50;;
5026;SDS011;2532;52.480;13.354;2022-07-25T01:51:30;5.33;;;4.10;;
5026;SDS011;2532;52.480;13.354;2022-07-25T01:53:57;3.93;;;3.53;;
5026;SDS011;2532;52.480;13.354;2022-07-25T01:56:25;5.53;;;3.97;;
5026;SDS011;2532;52.480;13.354;2022-07-25T01:58:52;6.63;;;5.57;;
5026;SDS011;2532;52.480;13.354;2022-07-25T02:01:19;6.23;;;4.10;;
5026;SDS011;2532;52.480;13.354;2022-07-25T02:03:46;5.70;;;3.40;;
5026;SDS011;2532;52.480;13.354;2022-07-25T02:06:16;4.00;;;3.60;;
5026;SDS011;2532;52.480;13.354;2022-07-25T02:08:43;5.00;;;4.50;;
5026;SDS011;2532;52.480;13.354;2022-07-25T02:11:10;4.17;;;3.57;;
5026;SDS011;2532;52.480;13.354;2022-07-25T02:13:38;6.67;;;4.87;;
5026;SDS011;2532;52.480;13.354;2022-07-25T02:16:05;4.70;;;3.90;;
5026;SDS011;2532;52.480;13.354;2022-07-25T02:18:32;4.97;;;4.40;;
5026;SDS011;2532;52.480;13.354;2022-07-25T02:20:59;4.77;;;4.27;;
5026;SDS011;2532;52.480;13.354;2022-07-25T02:23:26;7.20;;;5.60;;
5026;SDS011;2532;52.480;13.354;2022-07-25T02:25:53;5.00;;;4.50;;
5026;SDS011;2532;52.480;13.354;2022-07-25T02:28:19;5.30;;;3.90;;
5026;SDS011;2532;52.480;13.354;2022-07-25T02:30:48;6.97;;;4.73;;
5026;SDS011;2532;52.480;13.354;2022-07-25T02:33:14;8.10;;;5.60;;
5026;SDS011;2532;52.480;13.354;2022-07-25T02:35:41;4.77;;;3.97;;
5026;SDS011;2532;52.480;13.354;2022-07-25T02:38:08;5.47;;;4.90;;
5026;SDS011;2532;52.480;13.354;2022-07-25T02:40:35;7.80;;;4.37;;
5026;SDS011;2532;52.480;13.354;2022-07-25T02:43:02;8.43;;;4.63;;
5026;SDS011;2532;52.480;13.354;2022-07-25T02:45:28;5.07;;;4.20;;
5026;SDS011;2532;52.480;13.354;2022-07-25T02:47:57;5.10;;;4.03;;
5026;SDS011;2532;52.480;13.354;2022-07-25T02:50:23;4.90;;;4.10;;
5026;SDS011;2532;52.480;13.354;2022-07-25T02:52:50;6.40;;;4.20;;
5026;SDS011;2532;52.480;13.354;2022-07-25T02:55:19;7.13;;;4.97;;
5026;SDS011;2532;52.480;13.354;2022-07-25T02:57:46;6.77;;;5.57;;
5026;SDS011;2532;52.480;13.354;2022-07-25T03:00:13;5.10;;;4.20;;
5026;SDS011;2532;52.480;13.354;2022-07-25T03:02:41;5.47;;;4.10;;
5026;SDS011;2532;52.480;13.354;2022-07-25T03:05:10;5.20;;;3.93;;
5026;SDS011;2532;52.480;13.354;2022-07-25T03:07:38;4.87;;;4.00;;
5026;SDS011;2532;52.480;13.354;2022-07-25T03:10:06;5.57;;;4.07;;
5026;SDS011;2532;52.480;13.354;2022-07-25T03:12:34;6.80;;;5.10;;
5026;SDS011;2532;52.480;13.354;2022-07-25T03:15:02;6.20;;;4.50;;
5026;SDS011;2532;52.480;13.354;2022-07-25T03:17:30;6.60;;;4.50;;
5026;SDS011;2532;52.480;13.354;2022-07-25T03:19:57;6.73;;;4.47;;
5026;SDS011;2532;52.480;13.354;2022-07-25T03:22:25;5.33;;;4.40;;
5026;SDS011;2532;52.480;13.354;2022-07-25T03:24:52;5.27;;;4.67;;
5026;SDS011;2532;52.480;13.354;2022-07-25T03:27:19;6.97;;;5.23;;
5026;SDS011;2532;52.480;13.354;2022-07-25T03:29:46;4.63;;;4.00;;
5026;SDS011;2532;52.480;13.354;2022-07-25T03:32:13;7.80;;;5.40;;
5026;SDS011;2532;52.480;13.354;2022-07-25T03:34:39;7.13;;;4.83;;
5026;SDS011;2532;52.480;13.354;2022-07-25T03:37:07;6.20;;;4.60;;
5026;SDS011;2532;52.480;13.354;2022-07-25T03:39:35;7.27;;;5.33;;
5026;SDS011;2532;52.480;13.354;2022-07-25T03:42:02;7.73;;;5.43;;
5026;SDS011;2532;52.480;13.354;2022-07-25T03:47:11;9.63;;;6.37;;
5026;SDS011;2532;52.480;13.354;2022-07-25T03:49:38;6.07;;;4.50;;
5026;SDS011;2532;52.480;13.354;2022-07-25T03:52:05;8.53;;;4.97;;
5026;SDS011;2532;52.480;13.354;2022-07-25T03:54:31;4.63;;;3.97;;
5026;SDS011;2532;52.480;13.354;2022-07-25T03:57:00;6.00;;;4.30;;
5026;SDS011;2532;52.480;13.354;2022-07-25T03:59:27;7.10;;;4.57;;
5026;SDS011;2532;52.480;13.354;2022-07-25T04:01:53;5.20;;;4.57;;
5026;SDS011;2532;52.480;13.354;2022-07-25T04:04:20;5.03;;;3.83;;
5026;SDS011;2532;52.480;13.354;2022-07-25T04:06:47;7.67;;;4.63;;
5026;SDS011;2532;52.480;13.354;2022-07-25T04:09:14;7.10;;;5.20;;
5026;SDS011;2532;52.480;13.354;2022-07-25T04:11:41;6.83;;;4.70;;
5026;SDS011;2532;52.480;13.354;2022-07-25T04:14:10;7.87;;;5.13;;
5026;SDS011;2532;52.480;13.354;2022-07-25T04:16:37;6.77;;;4.80;;
5026;SDS011;2532;52.480;13.354;2022-07-25T04:19:04;7.40;;;4.60;;
5026;SDS011;2532;52.480;13.354;2022-07-25T04:21:32;9.20;;;5.10;;
5026;SDS011;2532;52.480;13.354;2022-07-25T04:24:00;8.63;;;4.20;;
5026;SDS011;2532;52.480;13.354;2022-07-25T04:26:27;8.70;;;4.53;;
5026;SDS011;2532;52.480;13.354;2022-07-25T04:28:54;9.30;;;6.33;;
5026;SDS011;2532;52.480;13.354;2022-07-25T04:31:24;6.70;;;4.80;;
5026;SDS011;2532;52.480;13.354;2022-07-25T04:33:51;7.60;;;5.70;;
5026;SDS011;2532;52.480;13.354;2022-07-25T04:36:19;14.47;;;6.33;;
5026;SDS011;2532;52.480;13.354;2022-07-25T04:38:46;9.00;;;6.40;;
5026;SDS011;2532;52.480;13.354;2022-07-25T04:41:15;9.50;;;5.33;;
5026;SDS011;2532;52.480;13.354;2022-07-25T04:43:46;8.47;;;5.57;;
5026;SDS011;2532;52.480;13.354;2022-07-25T04:46:16;6.90;;;5.17;;
5026;SDS011;2532;52.480;13.354;2022-07-25T04:48:46;6.47;;;4.87;;
5026;SDS011;2532;52.480;13.354;2022-07-25T04:51:15;6.90;;;5.33;;
5026;SDS011;2532;52.480;13.354;2022-07-25T04:53:43;6.87;;;5.13;;
5026;SDS011;2532;52.480;13.354;2022-07-25T04:56:13;10.30;;;4.80;;
5026;SDS011;2532;52.480;13.354;2022-07-25T04:58:40;6.37;;;4.70;;
5026;SDS011;2532;52.480;13.354;2022-07-25T05:01:07;9.40;;;4.80;;
5026;SDS011;2532;52.480;13.354;2022-07-25T05:03:34;5.70;;;4.87;;
5026;SDS011;2532;52.480;13.354;2022-07-25T05:06:05;5.90;;;4.53;;
5026;SDS011;2532;52.480;13.354;2022-07-25T05:08:32;7.20;;;4.93;;
5026;SDS011;2532;52.480;13.354;2022-07-25T05:10:59;5.73;;;4.83;;
5026;SDS011;2532;52.480;13.354;2022-07-25T05:13:27;7.23;;;6.00;;
5026;SDS011;2532;52.480;13.354;2022-07-25T05:15:54;6.57;;;4.93;;
5026;SDS011;2532;52.480;13.354;2022-07-25T05:18:21;9.87;;;4.47;;
5026;SDS011;2532;52.480;13.354;2022-07-25T05:20:49;6.60;;;4.40;;
5026;SDS011;2532;52.480;13.354;2022-07-25T05:23:21;6.67;;;4.50;;
5026;SDS011;2532;52.480;13.354;2022-07-25T05:25:48;8.40;;;4.97;;
5026;SDS011;2532;52.480;13.354;2022-07-25T05:28:15;5.40;;;4.37;;
5026;SDS011;2532;52.480;13.354;2022-07-25T05:33:40;6.57;;;5.03;;
5026;SDS011;2532;52.480;13.354;2022-07-25T05:36:08;6.23;;;5.50;;
5026;SDS011;2532;52.480;13.354;2022-07-25T05:38:41;6.23;;;4.70;;
5026;SDS011;2532;52.480;13.354;2022-07-25T05:41:09;7.97;;;5.93;;
5026;SDS011;2532;52.480;13.354;2022-07-25T05:43:37;7.40;;;5.30;;
5026;SDS011;2532;52.480;13.354;2022-07-25T05:46:06;6.67;;;5.07;;
5026;SDS011;2532;52.480;13.354;2022-07-25T05:48:33;4.70;;;4.17;;
5026;SDS011;2532;52.480;13.354;2022-07-25T05:51:00;13.00;;;4.57;;
5026;SDS011;2532;52.480;13.354;2022-07-25T05:53:27;10.80;;;4.57;;
5026;SDS011;2532;52.480;13.354;2022-07-25T05:55:55;5.77;;;3.87;;
5026;SDS011;2532;52.480;13.354;2022-07-25T05:58:22;4.40;;;4.00;;
5026;SDS011;2532;52.480;13.354;2022-07-25T06:00:49;4.83;;;3.83;;
5026;SDS011;2532;52.480;13.354;2022-07-25T06:03:16;5.60;;;4.60;;
5026;SDS011;2532;52.480;13.354;2022-07-25T06:05:43;6.63;;;4.17;;
5026;SDS011;2532;52.480;13.354;2022-07-25T06:08:10;5.10;;;4.20;;
5026;SDS011;2532;52.480;13.354;2022-07-25T06:10:37;5.07;;;4.10;;
5026;SDS011;2532;52.480;13.354;2022-07-25T06:13:05;4.73;;;4.17;;
5026;SDS011;2532;52.480;13.354;2022-07-25T06:15:32;5.30;;;4.80;;
5026;SDS011;2532;52.480;13.354;2022-07-25T06:17:59;8.40;;;4.10;;
5026;SDS011;2532;52.480;13.354;2022-07-25T06:20:26;12.50;;;5.30;;
5026;SDS011;2532;52.480;13.354;2022-07-25T06:22:53;4.40;;;3.73;;
5026;SDS011;2532;52.480;13.354;2022-07-25T06:25:20;7.07;;;3.90;;
5026;SDS011;2532;52.480;13.354;2022-07-25T06:27:47;4.20;;;3.80;;
5026;SDS011;2532;52.480;13.354;2022-07-25T06:30:15;7.40;;;3.63;;
5026;SDS011;2532;52.480;13.354;2022-07-25T06:32:42;7.40;;;4.23;;
5026;SDS011;2532;52.480;13.354;2022-07-25T06:35:09;6.37;;;5.00;;
5026;SDS011;2532;52.480;13.354;2022-07-25T06:37:36;4.33;;;3.93;;
5026;SDS011;2532;52.480;13.354;2022-07-25T06:40:04;4.27;;;3.30;;
5026;SDS011;2532;52.480;13.354;2022-07-25T06:42:32;4.73;;;4.07;;
5026;SDS011;2532;52.480;13.354;2022-07-25T06:45:02;7.30;;;5.10;;
5026;SDS011;2532;52.480;13.354;2022-07-25T06:47:31;6.93;;;5.30;;
5026;SDS011;2532;52.480;13.354;2022-07-25T06:49:58;4.90;;;4.10;;
5026;SDS011;2532;52.480;13.354;2022-07-25T06:52:24;8.27;;;5.23;;
5026;SDS011;2532;52.480;13.354;2022-07-25T06:54:51;6.43;;;4.37;;
5026;SDS011;2532;52.480;13.354;2022-07-25T06:57:18;6.07;;;5.07;;
5026;SDS011;2532;52.480;13.354;2022-07-25T06:59:45;4.90;;;4.40;;
5026;SDS011;2532;52.480;13.354;2022-07-25T07:02:12;11.63;;;5.40;;
5026;SDS011;2532;52.480;13.354;2022-07-25T07:04:40;5.70;;;5.10;;
5026;SDS011;2532;52.480;13.354;2022-07-25T07:07:07;6.33;;;5.33;;
5026;SDS011;2532;52.480;13.354;2022-07-25T07:09:34;5.50;;;4.90;;
5026;SDS011;2532;52.480;13.354;2022-07-25T07:12:01;11.40;;;5.10;;
5026;SDS011;2532;52.480;13.354;2022-07-25T07:14:28;5.30;;;4.80;;
5026;SDS011;2532;52.480;13.354;2022-07-25T07:16:55;5.67;;;4.83;;
5026;SDS011;2532;52.480;13.354;2022-07-25T07:19:22;5.43;;;4.60;;
5026;SDS011;2532;52.480;13.354;2022-07-25T07:21:51;5.90;;;5.30;;
5026;SDS011;2532;52.480;13.354;2022-07-25T07:24:17;6.50;;;5.07;;
5026;SDS011;2532;52.480;13.354;2022-07-25T07:26:44;5.67;;;5.00;;
5026;SDS011;2532;52.480;13.354;2022-07-25T07:29:11;9.80;;;5.40;;
5026;SDS011;2532;52.480;13.354;2022-07-25T07:31:38;7.87;;;5.73;;
5026;SDS011;2532;52.480;13.354;2022-07-25T07:34:05;5.67;;;5.17;;
5026;SDS011;2532;52.480;13.354;2022-07-25T07:36:32;7.37;;;5.53;;
5026;SDS011;2532;52.480;13.354;2022-07-25T07:39:01;5.90;;;5.40;;
5026;SDS011;2532;52.480;13.354;2022-07-25T07:41:28;6.67;;;5.73;;
5026;SDS011;2532;52.480;13.354;2022-07-25T07:43:55;5.73;;;5.23;;
5026;SDS011;2532;52.480;13.354;2022-07-25T07:46:21;9.43;;;6.20;;
5026;SDS011;2532;52.480;13.354;2022-07-25T07:48:48;6.67;;;6.03;;
5026;SDS011;2532;52.480;13.354;2022-07-25T07:51:15;6.37;;;5.60;;
5026;SDS011;2532;52.480;13.354;2022-07-25T07:53:42;8.10;;;6.23;;
5026;SDS011;2532;52.480;13.354;2022-07-25T07:56:27;11.07;;;6.00;;
5026;SDS011;2532;52.480;13.354;2022-07-25T07:58:54;7.57;;;5.70;;
5026;SDS011;2532;52.480;13.354;2022-07-25T08:01:21;7.73;;;6.00;;
5026;SDS011;2532;52.480;13.354;2022-07-25T08:03:48;9.90;;;5.70;;
5026;SDS011;2532;52.480;13.354;2022-07-25T08:06:15;8.90;;;6.47;;
5026;SDS011;2532;52.480;13.354;2022-07-25T08:08:42;6.87;;;6.17;;
5026;SDS011;2532;52.480;13.354;2022-07-25T08:11:10;9.27;;;6.10;;
5026;SDS011;2532;52.480;13.354;2022-07-25T08:13:38;6.10;;;5.50;;
5026;SDS011;2532;52.480;13.354;2022-07-25T08:16:05;8.80;;;6.20;;
5026;SDS011;2532;52.480;13.354;2022-07-25T08:18:32;6.83;;;6.13;;
5026;SDS011;2532;52.480;13.354;2022-07-25T08:20:59;7.57;;;6.77;;
5026;SDS011;2532;52.480;13.354;2022-07-25T08:23:30;6.47;;;5.83;;
5026;SDS011;2532;52.480;13.354;2022-07-25T08:25:58;7.83;;;6.27;;
5026;SDS011;2532;52.480;13.354;2022-07-25T08:28:26;7.30;;;6.60;;
5026;SDS011;2532;52.480;13.354;2022-07-25T08:30:55;11.97;;;7.97;;
5026;SDS011;2532;52.480;13.354;2022-07-25T08:33:22;7.77;;;7.07;;
5026;SDS011;2532;52.480;13.354;2022-07-25T08:35:51;7.93;;;7.13;;
5026;SDS011;2532;52.480;13.354;2022-07-25T08:38:19;9.13;;;7.17;;
5026;SDS011;2532;52.480;13.354;2022-07-25T08:40:46;11.20;;;7.40;;
5026;SDS011;2532;52.480;13.354;2022-07-25T08:43:13;9.30;;;7.50;;
5026;SDS011;2532;52.480;13.354;2022-07-25T08:45:42;7.97;;;7.20;;
5026;SDS011;2532;52.480;13.354;2022-07-25T08:48:12;9.70;;;8.00;;
5026;SDS011;2532;52.480;13.354;2022-07-25T08:50:41;15.10;;;7.13;;
5026;SDS011;2532;52.480;13.354;2022-07-25T08:53:09;7.93;;;7.23;;
5026;SDS011;2532;52.480;13.354;2022-07-25T08:55:36;8.00;;;7.20;;
5026;SDS011;2532;52.480;13.354;2022-07-25T08:58:03;9.70;;;7.50;;
5026;SDS011;2532;52.480;13.354;2022-07-25T09:00:30;10.70;;;7.53;;
5026;SDS011;2532;52.480;13.354;2022-07-25T09:02:58;8.23;;;7.43;;
5026;SDS011;2532;52.480;13.354;2022-07-25T09:05:27;9.80;;;7.70;;
5026;SDS011;2532;52.480;13.354;2022-07-25T09:07:56;8.60;;;7.70;;
5026;SDS011;2532;52.480;13.354;2022-07-25T09:10:31;8.30;;;7.47;;
5026;SDS011;2532;52.480;13.354;2022-07-25T09:12:58;10.80;;;8.13;;
5026;SDS011;2532;52.480;13.354;2022-07-25T09:15:27;9.90;;;7.70;;
5026;SDS011;2532;52.480;13.354;2022-07-25T09:17:56;8.17;;;7.30;;
5026;SDS011;2532;52.480;13.354;2022-07-25T09:20:36;7.87;;;7.17;;
5026;SDS011;2532;52.480;13.354;2022-07-25T09:23:05;10.00;;;7.67;;
5026;SDS011;2532;52.480;13.354;2022-07-25T09:25:33;8.60;;;7.80;;
5026;SDS011;2532;52.480;13.354;2022-07-25T09:28:13;10.40;;;7.17;;
5026;SDS011;2532;52.480;13.354;2022-07-25T09:30:51;8.87;;;8.03;;
5026;SDS011;2532;52.480;13.354;2022-07-25T09:33:20;10.20;;;8.40;;
5026;SDS011;2532;52.480;13.354;2022-07-25T09:35:48;9.80;;;8.30;;
5026;SDS011;2532;52.480;13.354;2022-07-25T09:38:16;8.77;;;7.87;;
5026;SDS011;2532;52.480;13.354;2022-07-25T09:40:52;12.00;;;7.90;;
5026;SDS011;2532;52.480;13.354;2022-07-25T09:43:21;14.43;;;9.80;;
5026;SDS011;2532;52.480;13.354;2022-07-25T09:45:48;16.33;;;9.37;;
5026;SDS011;2532;52.480;13.354;2022-07-25T09:48:17;9.57;;;8.60;;
5026;SDS011;2532;52.480;13.354;2022-07-25T09:50:45;11.70;;;8.83;;
5026;SDS011;2532;52.480;13.354;2022-07-25T09:53:13;9.67;;;8.30;;
5026;SDS011;2532;52.480;13.354;2022-07-25T09:55:44;10.13;;;9.03;;
5026;SDS011;2532;52.480;13.354;2022-07-25T09:58:11;9.23;;;7.90;;
5026;SDS011;2532;52.480;13.354;2022-07-25T10:00:39;9.60;;;8.60;;
5026;SDS011;2532;52.480;13.354;2022-07-25T10:03:10;9.37;;;8.10;;
5026;SDS011;2532;52.480;13.354;2022-07-25T10:05:47;9.73;;;8.73;;
5026;SDS011;2532;52.480;13.354;2022-07-25T10:08:24;8.70;;;7.80;;
5026;SDS011;2532;52.480;13.354;2022-07-25T10:10:52;11.13;;;8.33;;
5026;SDS011;2532;52.480;13.354;2022-07-25T10:13:27;9.53;;;8.30;;
5026;SDS011;2532;52.480;13.354;2022-07-25T10:15:55;8.80;;;7.87;;
5026;SDS011;2532;52.480;13.354;2022-07-25T10:18:23;10.10;;;8.77;;
5026;SDS011;2532;52.480;13.354;2022-07-25T10:20:53;10.27;;;8.57;;
5026;SDS011;2532;52.480;13.354;2022-07-25T10:23:22;13.73;;;8.83;;
5026;SDS011;2532;52.480;13.354;2022-07-25T10:26:02;12.13;;;8.90;;
5026;SDS011;2532;52.480;13.354;2022-07-25T10:28:39;10.73;;;9.63;;
5026;SDS011;2532;52.480;13.354;2022-07-25T10:31:19;10.80;;;9.63;;
5026;SDS011;2532;52.480;13.354;2022-07-25T10:33:49;11.17;;;8.40;;
5026;SDS011;2532;52.480;13.354;2022-07-25T10:36:17;9.07;;;8.17;;
5026;SDS011;2532;52.480;13.354;2022-07-25T10:38:49;9.53;;;8.53;;
5026;SDS011;2532;52.480;13.354;2022-07-25T10:41:16;10.30;;;8.50;;
5026;SDS011;2532;52.480;13.354;2022-07-25T10:43:45;8.90;;;8.10;;
5026;SDS011;2532;52.480;13.354;2022-07-25T10:46:17;9.20;;;8.03;;
5026;SDS011;2532;52.480;13.354;2022-07-25T10:48:55;10.83;;;9.00;;
5026;SDS011;2532;52.480;13.354;2022-07-25T10:51:25;10.63;;;8.80;;
5026;SDS011;2532;52.480;13.354;2022-07-25T10:53:54;10.70;;;9.07;;
5026;SDS011;2532;52.480;13.354;2022-07-25T10:56:22;11.00;;;8.87;;
5026;SDS011;2532;52.480;13.354;2022-07-25T10:58:50;9.53;;;8.53;;
5026;SDS011;2532;52.480;13.354;2022-07-25T11:01:20;10.40;;;9.23;;
5026;SDS011;2532;52.480;13.354;2022-07-25T11:03:48;9.30;;;8.50;;
5026;SDS011;2532;52.480;13.354;2022-07-25T11:06:16;10.57;;;8.20;;
5026;SDS011;2532;52.480;13.354;2022-07-25T11:08:56;18.87;;;8.23;;
5026;SDS011;2532;52.480;13.354;2022-07-25T11:11:31;11.90;;;8.70;;
5026;SDS011;2532;52.480;13.354;2022-07-25T11:13:59;12.50;;;8.47;;
5026;SDS011;2532;52.480;13.354;2022-07-25T11:16:26;10.50;;;7.80;;
5026;SDS011;2532;52.480;13.354;2022-07-25T11:18:53;8.00;;;7.30;;
5026;SDS011;2532;52.480;13.354;2022-07-25T11:21:20;9.80;;;8.90;;
5026;SDS011;2532;52.480;13.354;2022-07-25T11:23:48;8.67;;;7.90;;
5026;SDS011;2532;52.480;13.354;2022-07-25T11:26:17;10.40;;;8.30;;
5026;SDS011;2532;52.480;13.354;2022-07-25T11:28:46;9.63;;;8.53;;
5026;SDS011;2532;52.480;13.354;2022-07-25T11:31:14;12.63;;;8.13;;
5026;SDS011;2532;52.480;13.354;2022-07-25T11:33:44;10.27;;;7.40;;
5026;SDS011;2532;52.480;13.354;2022-07-25T11:36:12;10.60;;;7.77;;
5026;SDS011;2532;52.480;13.354;2022-07-25T11:38:40;9.67;;;7.93;;
5026;SDS011;2532;52.480;13.354;2022-07-25T11:41:07;9.50;;;8.50;;
5026;SDS011;2532;52.480;13.354;2022-07-25T11:43:36;9.67;;;8.53;;
5026;SDS011;2532;52.480;13.354;2022-07-25T11:46:03;9.00;;;8.20;;
5026;SDS011;2532;52.480;13.354;2022-07-25T11:48:32;12.70;;;7.63;;
5026;SDS011;2532;52.480;13.354;2022-07-25T11:51:08;12.77;;;7.97;;
5026;SDS011;2532;52.480;13.354;2022-07-25T11:53:43;8.60;;;7.80;;
5026;SDS011;2532;52.480;13.354;2022-07-25T11:56:16;8.97;;;7.80;;
5026;SDS011;2532;52.480;13.354;2022-07-25T11:58:58;11.50;;;8.70;;
5026;SDS011;2532;52.480;13.354;2022-07-25T12:01:32;8.93;;;8.03;;
5026;SDS011;2532;52.480;13.354;2022-07-25T12:04:06;12.67;;;8.40;;
5026;SDS011;2532;52.480;13.354;2022-07-25T12:06:34;15.60;;;8.43;;
5026;SDS011;2532;52.480;13.354;2022-07-25T12:09:08;10.10;;;8.90;;
5026;SDS011;2532;52.480;13.354;2022-07-25T12:11:39;10.40;;;9.07;;
5026;SDS011;2532;52.480;13.354;2022-07-25T12:14:08;9.57;;;8.37;;
5026;SDS011;2532;52.480;13.354;2022-07-25T12:16:35;13.80;;;8.57;;
5026;SDS011;2532;52.480;13.354;2022-07-25T12:19:03;9.03;;;7.63;;
5026;SDS011;2532;52.480;13.354;2022-07-25T12:21:33;10.00;;;9.00;;
5026;SDS011;2532;52.480;13.354;2022-07-25T12:24:00;13.93;;;10.07;;
5026;SDS011;2532;52.480;13.354;2022-07-25T12:26:27;9.63;;;8.40;;
5026;SDS011;2532;52.480;13.354;2022-07-25T12:28:54;9.67;;;8.30;;
5026;SDS011;2532;52.480;13.354;2022-07-25T12:31:22;8.70;;;7.80;;
5026;SDS011;2532;52.480;13.354;2022-07-25T12:33:52;12.87;;;8.80;;
5026;SDS011;2532;52.480;13.354;2022-07-25T12:36:19;13.00;;;8.70;;
5026;SDS011;2532;52.480;13.354;2022-07-25T12:38:46;10.30;;;8.77;;
5026;SDS011;2532;52.480;13.354;2022-07-25T12:41:13;9.80;;;8.90;;
5026;SDS011;2532;52.480;13.354;2022-07-25T12:43:39;8.77;;;7.40;;
5026;SDS011;2532;52.480;13.354;2022-07-25T12:46:06;9.23;;;8.20;;
5026;SDS011;2532;52.480;13.354;2022-07-25T12:48:34;16.63;;;8.77;;
5026;SDS011;2532;52.480;13.354;2022-07-25T12:51:02;11.77;;;9.43;;
5026;SDS011;2532;52.480;13.354;2022-07-25T12:53:29;10.87;;;8.20;;
5026;SDS011;2532;52.480;13.354;2022-07-25T12:55:56;9.37;;;8.37;;
5026;SDS011;2532;52.480;13.354;2022-07-25T12:58:23;9.97;;;8.97;;
5026;SDS011;2532;52.480;13.354;2022-07-25T13:00:49;10.80;;;9.63;;
5026;SDS011;2532;52.480;13.354;2022-07-25T13:03:16;10.03;;;8.10;;
5026;SDS011;2532;52.480;13.354;2022-07-25T13:05:44;9.80;;;8.30;;
5026;SDS011;2532;52.480;13.354;2022-07-25T13:08:11;9.53;;;8.40;;
5026;SDS011;2532;52.480;13.354;2022-07-25T13:10:38;8.43;;;7.63;;
5026;SDS011;2532;52.480;13.354;2022-07-25T13:13:05;10.93;;;8.10;;
5026;SDS011;2532;52.480;13.354;2022-07-25T13:15:32;10.80;;;8.60;;
5026;SDS011;2532;52.480;13.354;2022-07-25T13:18:00;10.77;;;8.20;;
5026;SDS011;2532;52.480;13.354;2022-07-25T13:20:27;11.87;;;8.47;;
5026;SDS011;2532;52.480;13.354;2022-07-25T13:22:56;10.70;;;9.27;;
5026;SDS011;2532;52.480;13.354;2022-07-25T13:25:23;10.17;;;7.70;;
5026;SDS011;2532;52.480;13.354;2022-07-25T13:27:50;9.10;;;8.30;;
5026;SDS011;2532;52.480;13.354;2022-07-25T13:30:16;8.80;;;7.93;;
5026;SDS011;2532;52.480;13.354;2022-07-25T13:32:43;9.07;;;7.97;;
5026;SDS011;2532;52.480;13.354;2022-07-25T13:35:10;8.33;;;7.53;;
5026;SDS011;2532;52.480;13.354;2022-07-25T13:37:37;8.53;;;7.53;;
5026;SDS011;2532;52.480;13.354;2022-07-25T13:40:06;15.90;;;8.37;;
5026;SDS011;2532;52.480;13.354;2022-07-25T13:42:33;13.17;;;9.67;;
5026;SDS011;2532;52.480;13.354;2022-07-25T13:45:00;10.10;;;7.70;;
5026;SDS011;2532;52.480;13.354;2022-07-25T13:47:26;17.90;;;8.30;;
5026;SDS011;2532;52.480;13.354;2022-07-25T13:49:54;8.80;;;7.50;;
5026;SDS011;2532;52.480;13.354;2022-07-25T13:52:21;14.73;;;8.00;;
5026;SDS011;2532;52.480;13.354;2022-07-25T13:54:48;9.73;;;8.00;;
5026;SDS011;2532;52.480;13.354;2022-07-25T13:57:16;8.70;;;7.90;;
5026;SDS011;2532;52.480;13.354;2022-07-25T13:59:43;13.03;;;8.03;;
5026;SDS011;2532;52.480;13.354;2022-07-25T14:02:10;10.90;;;8.03;;
5026;SDS011;2532;52.480;13.354;2022-07-25T14:04:37;11.03;;;8.93;;
5026;SDS011;2532;52.480;13.354;2022-07-25T14:07:04;11.33;;;8.57;;
5026;SDS011;2532;52.480;13.354;2022-07-25T14:09:30;12.43;;;8.37;;
5026;SDS011;2532;52.480;13.354;2022-07-25T14:11:57;10.20;;;8.30;;
5026;SDS011;2532;52.480;13.354;2022-07-25T14:14:25;8.57;;;7.77;;
5026;SDS011;2532;52.480;13.354;2022-07-25T14:16:52;9.07;;;8.17;;
5026;SDS011;2532;52.480;13.354;2022-07-25T14:19:19;8.50;;;7.60;;
5026;SDS011;2532;52.480;13.354;2022-07-25T14:21:48;9.53;;;7.30;;
5026;SDS011;2532;52.480;13.354;2022-07-25T14:24:14;8.60;;;7.77;;
5026;SDS011;2532;52.480;13.354;2022-07-25T14:26:41;9.00;;;8.13;;
5026;SDS011;2532;52.480;13.354;2022-07-25T14:29:08;8.57;;;7.63;;
5026;SDS011;2532;52.480;13.354;2022-07-25T14:31:38;9.07;;;8.17;;
5026;SDS011;2532;52.480;13.354;2022-07-25T14:34:05;13.87;;;8.10;;
5026;SDS011;2532;52.480;13.354;2022-07-25T14:36:33;9.20;;;8.23;;
5026;SDS011;2532;52.480;13.354;2022-07-25T14:39:00;12.73;;;7.97;;
5026;SDS011;2532;52.480;13.354;2022-07-25T14:41:28;8.70;;;7.90;;
5026;SDS011;2532;52.480;13.354;2022-07-25T14:43:54;8.30;;;7.00;;
5026;SDS011;2532;52.480;13.354;2022-07-25T14:46:21;9.37;;;8.03;;
5026;SDS011;2532;52.480;13.354;2022-07-25T14:48:49;8.17;;;7.37;;
5026;SDS011;2532;52.480;13.354;2022-07-25T14:51:18;8.40;;;7.60;;
5026;SDS011;2532;52.480;13.354;2022-07-25T14:53:44;9.33;;;8.03;;
5026;SDS011;2532;52.480;13.354;2022-07-25T14:56:11;9.27;;;7.90;;
5026;SDS011;2532;52.480;13.354;2022-07-25T14:58:38;8.47;;;7.60;;
5026;SDS011;2532;52.480;13.354;2022-07-25T15:01:05;8.13;;;7.37;;
5026;SDS011;2532;52.480;13.354;2022-07-25T15:03:33;10.27;;;7.50;;
5026;SDS011;2532;52.480;13.354;2022-07-25T15:06:02;8.73;;;7.83;;
5026;SDS011;2532;52.480;13.354;2022-07-25T15:08:30;8.37;;;7.50;;